Nearby METAR Reports

 

TNCA - Queen Beatrix, Lesser Antilles
Distance from station: 0 0km
Updated: 18/10/2017 16:00
Few Clouds
Few Clouds
 Wind from E
Wind: E 37 km/h, Gust: 57 km/h
Temperature: 32°C
Heat Index: 42°C
Dew Point: 26°C
Humidity: 71%
Barometer: 1008 hPa
Clouds: Few Clouds
Visibility: 10 km
Cloud details: Few Clouds 762 m
2017/10/18 20:00 TNCA 182000Z 08020G31KT 9999 FEW025 32/26 Q1008 A2977 NOSIG
SVJC - Paraguana/Josefa, Venezuela
Distance from station: S 83km
Updated: 20/09/2017 14:00
NOT Current
Mostly Cloudy
Mostly Cloudy
 Wind from NNW
Wind: NNW 28 km/h
Clouds: Mostly Cloudy
Visibility: 10 km
Cloud details: Mostly Cloudy 1829 m
2017/09/20 18:00 SVJC 201800Z 33015KT 9999 BKN060CB XX/XX Q1008
 
TNCC - Hato Air Curacao, Lesser Antilles
Distance from station: ESE 117km
Updated: 18/10/2017 16:00
Few Clouds
Few Clouds
 Wind from E
Wind: E 26 km/h
Temperature: 32°C
Heat Index: 40°C
Dew Point: 25°C
Humidity: 67%
Barometer: 1009 hPa
Clouds: Few Clouds
Visibility: 10 km
Cloud details: Few Clouds 671 m
2017/10/18 20:00 TNCC 182000Z 10014KT 9999 FEW022 32/25 Q1009 NOSIG
SVCR - Coro/Jose Leonar, Venezuela
Distance from station: SSE 126km
Updated: 20/09/2017 14:00
NOT Current
Clear
Clear
 Wind from E
Wind: E 19 km/h
Summary: Clear
Visibility: greater than 10 km
2017/09/20 18:00 SVCR 201800Z 08010KT CAVOK XX/XX Q1009
 
TNCB - Bonaire/Flamingo, Lesser Antilles
Distance from station: ESE 191km
Updated: 18/10/2017 15:55
Partly Cloudy
Partly Cloudy
 Wind from E
Wind: E 35 km/h
Temperature: 31°C
Heat Index: 37°C
Dew Point: 24°C
Humidity: 66%
Barometer: 1009 hPa
Clouds: Partly Cloudy
Visibility: 10 km
Cloud details: Partly Cloudy 579 m
2017/10/18 19:55 TNCB 181955Z 09019KT 060V140 9999 SCT019 31/24 Q1009
SVMC - Maracaibo/La Chi, Venezuela
Distance from station: SW 285km
Updated: 15/10/2017 17:00
NOT Current
Mostly Cloudy
Mostly Cloudy
 Wind from ESE
Wind: ESE 2 km/h
Temperature: 31°C
Heat Index: 39°C
Dew Point: 26°C
Humidity: 75%
Barometer: 1007 hPa
Clouds: Mostly Cloudy
Visibility: 10 km
Cloud details: Few Clouds 488 m
Mostly Cloudy 2134 m
2017/10/15 21:00 SVMC 152100Z 11001KT 9999 FEW016 BKN070 31/26 Q1007